Time;durP1;ratioP1;P1;durP2;ratioP2;P2;SDS_P1;SDS_P2;PMS_P1;PMS_P2;Temp;Humidity;BMP_temperature;BMP_pressure;BME280_temperature;BME280_humidity;BME280_pressure;Samples;Min_cycle;Max_cycle;Signal;HPM_P1;HPM_P2
2023/07/18 00:02:09;;;;;;;12.23;4.78;;;15.60;99.90;;;;;;5116259;28;20131;-77
2023/07/18 00:04:36;;;;;;;16.13;4.40;;;15.60;99.90;;;;;;5115918;28;20074;-76
2023/07/18 00:07:02;;;;;;;13.63;4.90;;;15.60;99.90;;;;;;5071775;28;20480;-77
2023/07/18 00:09:28;;;;;;;13.52;4.07;;;15.60;99.90;;;;;;5095866;28;20085;-76
2023/07/18 00:11:53;;;;;;;10.38;4.60;;;15.60;99.90;;;;;;5096491;28;20431;-76
2023/07/18 00:14:19;;;;;;;8.85;3.95;;;15.50;99.90;;;;;;5113975;28;20035;-76
2023/07/18 00:16:45;;;;;;;11.00;4.45;;;15.50;99.90;;;;;;5113589;28;20032;-76
2023/07/18 00:19:12;;;;;;;15.75;4.80;;;15.50;99.90;;;;;;5114495;28;20097;-76
2023/07/18 00:21:43;;;;;;;12.43;5.05;;;15.50;99.90;;;;;;5098834;28;20039;-77
2023/07/18 00:24:11;;;;;;;18.95;5.38;;;15.50;99.90;;;;;;5118122;28;20469;-77
2023/07/18 00:26:36;;;;;;;16.13;4.45;;;15.50;99.90;;;;;;5117199;28;20170;-76
2023/07/18 00:29:03;;;;;;;14.05;4.80;;;15.90;99.90;;;;;;5115104;28;20044;-77
2023/07/18 00:31:28;;;;;;;16.73;5.00;;;15.50;99.90;;;;;;5093265;28;20040;-75
2023/07/18 00:33:54;;;;;;;16.42;5.00;;;15.40;99.90;;;;;;5090530;28;20508;-76
2023/07/18 00:36:20;;;;;;;14.60;4.38;;;15.40;99.90;;;;;;5113759;28;20127;-77
2023/07/18 00:38:45;;;;;;;13.07;4.40;;;15.40;99.90;;;;;;5113776;28;20078;-76
2023/07/18 00:41:11;;;;;;;16.88;4.97;;;15.40;99.90;;;;;;5109068;28;20046;-77
2023/07/18 00:43:37;;;;;;;12.73;4.50;;;15.30;99.90;;;;;;5096260;28;20067;-75
2023/07/18 00:46:04;;;;;;;17.73;5.18;;;15.30;99.90;;;;;;5111724;28;20040;-77
2023/07/18 00:48:32;;;;;;;16.38;5.13;;;15.30;99.90;;;;;;5093224;28;20047;-76
2023/07/18 00:51:00;;;;;;;14.07;4.53;;;15.30;99.90;;;;;;5114759;28;20396;-76
2023/07/18 00:53:27;;;;;;;13.23;4.50;;;15.20;99.90;;;;;;5092754;28;20485;-76
2023/07/18 00:55:54;;;;;;;17.38;4.72;;;15.20;99.90;;;;;;5087453;28;20055;-76
2023/07/18 00:58:20;;;;;;;14.73;5.22;;;15.20;99.90;;;;;;5091772;28;20063;-76
2023/07/18 01:00:46;;;;;;;11.50;4.32;;;15.20;99.90;;;;;;5109782;28;20116;-77
2023/07/18 01:03:12;;;;;;;18.25;4.25;;;15.20;99.90;;;;;;5099917;28;20075;-77
2023/07/18 01:05:39;;;;;;;16.38;4.57;;;15.20;99.90;;;;;;5086210;28;20529;-76
2023/07/18 01:08:05;;;;;;;15.07;4.35;;;15.20;99.90;;;;;;5109260;28;20059;-76
2023/07/18 01:10:30;;;;;;;18.05;4.22;;;15.20;99.90;;;;;;5110514;28;20100;-76
2023/07/18 01:12:59;;;;;;;13.98;4.30;;;15.20;99.90;;;;;;5114298;28;20039;-77
2023/07/18 01:15:34;;;;;;;13.75;4.72;;;15.10;99.90;;;;;;5111119;28;20092;-77
2023/07/18 01:18:07;;;;;;;17.92;4.32;;;15.10;99.90;;;;;;5113104;28;20047;-76
2023/07/18 01:20:33;;;;;;;14.35;4.63;;;15.00;99.90;;;;;;5090304;28;20040;-76
2023/07/18 01:23:03;;;;;;;17.40;4.63;;;15.10;99.90;;;;;;5095407;28;20415;-77
2023/07/18 01:25:30;;;;;;;12.40;4.60;;;15.10;99.90;;;;;;5103893;28;20083;-77
2023/07/18 01:27:59;;;;;;;14.52;4.90;;;15.10;99.90;;;;;;5085681;28;20476;-76
2023/07/18 01:30:26;;;;;;;13.00;4.68;;;15.10;99.90;;;;;;5095399;28;20051;-76
2023/07/18 01:32:52;;;;;;;15.13;4.47;;;15.10;99.90;;;;;;5111560;28;20122;-77
2023/07/18 01:35:25;;;;;;;11.88;4.40;;;15.10;99.90;;;;;;5090771;28;20093;-77
2023/07/18 01:37:52;;;;;;;12.50;4.47;;;15.10;99.90;;;;;;5109331;28;20504;-76
2023/07/18 01:40:20;;;;;;;13.15;4.95;;;15.10;99.90;;;;;;5109086;28;20036;-76
2023/07/18 01:42:52;;;;;;;11.32;4.22;;;15.00;99.90;;;;;;5067244;28;20052;-75
2023/07/18 01:45:19;;;;;;;15.23;5.43;;;15.00;99.90;;;;;;5109539;28;20058;-76
2023/07/18 01:47:47;;;;;;;24.50;5.35;;;15.00;99.90;;;;;;5096098;28;20118;-76
2023/07/18 01:50:13;;;;;;;12.77;4.78;;;15.00;99.90;;;;;;5096192;28;20074;-77
2023/07/18 01:52:39;;;;;;;11.77;4.43;;;15.00;99.90;;;;;;5114803;28;20042;-77
2023/07/18 01:55:05;;;;;;;16.52;5.10;;;14.90;99.90;;;;;;5098526;28;20474;-76
2023/07/18 01:57:42;;;;;;;12.05;4.35;;;14.90;99.90;;;;;;5107367;28;20460;-77
2023/07/18 02:00:10;;;;;;;19.67;5.00;;;14.90;99.90;;;;;;5110330;28;20505;-77
2023/07/18 02:02:37;;;;;;;15.48;4.60;;;14.90;99.90;;;;;;5078975;28;20076;-76
2023/07/18 02:05:04;;;;;;;16.00;4.15;;;14.90;99.90;;;;;;5114231;28;20044;-77
2023/07/18 02:07:30;;;;;;;10.43;4.75;;;14.90;99.90;;;;;;5107778;28;20054;-78
2023/07/18 02:09:57;;;;;;;20.10;5.25;;;14.90;99.90;;;;;;5105999;28;20055;-77
2023/07/18 02:12:23;;;;;;;16.63;4.88;;;14.90;99.90;;;;;;5113248;28;20143;-78
2023/07/18 02:14:50;;;;;;;21.08;5.07;;;14.90;99.90;;;;;;5105060;28;20077;-76
2023/07/18 02:17:15;;;;;;;15.38;5.03;;;14.90;99.90;;;;;;5095154;28;20108;-78
2023/07/18 02:19:41;;;;;;;13.57;4.65;;;14.90;99.90;;;;;;5069081;28;20056;-77
2023/07/18 02:22:09;;;;;;;17.52;5.05;;;14.90;99.90;;;;;;5077136;28;20504;-76
2023/07/18 02:24:35;;;;;;;18.70;5.88;;;14.50;99.90;;;;;;5105950;28;20044;-76
2023/07/18 02:27:01;;;;;;;19.70;5.68;;;14.90;99.90;;;;;;5107229;28;20504;-77
2023/07/18 02:29:27;;;;;;;15.40;5.68;;;14.90;99.90;;;;;;5104932;28;20051;-77
2023/07/18 02:31:53;;;;;;;18.40;5.63;;;14.90;99.90;;;;;;5108777;28;20126;-77
2023/07/18 02:34:19;;;;;;;19.15;5.50;;;14.90;99.90;;;;;;5108059;28;20063;-76
2023/07/18 02:36:47;;;;;;;14.98;4.78;;;14.90;99.90;;;;;;5092762;28;20043;-76
2023/07/18 02:39:13;;;;;;;16.40;5.57;;;15.00;99.90;;;;;;5104366;28;20036;-77
2023/07/18 02:41:39;;;;;;;17.98;4.72;;;14.90;99.90;;;;;;5107845;28;20470;-77
2023/07/18 02:44:05;;;;;;;15.85;5.03;;;14.80;99.90;;;;;;5112049;28;20036;-76
2023/07/18 02:46:30;;;;;;;14.25;4.88;;;14.80;99.90;;;;;;5102251;28;20444;-76
2023/07/18 02:48:58;;;;;;;13.13;5.13;;;15.00;99.90;;;;;;5104784;28;20046;-77
2023/07/18 02:51:23;;;;;;;20.53;5.77;;;14.80;99.90;;;;;;5083296;28;20056;-78
2023/07/18 02:53:50;;;;;;;15.32;5.15;;;14.80;99.90;;;;;;5088505;28;20040;-76
2023/07/18 02:56:16;;;;;;;19.90;5.90;;;14.80;99.90;;;;;;5091698;28;20036;-77
2023/07/18 02:58:42;;;;;;;16.20;4.50;;;14.80;99.90;;;;;;5110735;28;20096;-76
2023/07/18 03:01:08;;;;;;;21.38;5.75;;;14.80;99.90;;;;;;5087057;28;20090;-76
2023/07/18 03:03:40;;;;;;;15.35;5.18;;;14.80;99.90;;;;;;5108466;28;20051;-76
2023/07/18 03:06:07;;;;;;;12.27;4.38;;;14.70;99.90;;;;;;5104774;28;20051;-76
2023/07/18 03:08:34;;;;;;;13.98;5.15;;;14.80;99.90;;;;;;5105823;28;20044;-77
2023/07/18 03:11:03;;;;;;;21.77;5.03;;;14.70;99.90;;;;;;5092521;28;20119;-77
2023/07/18 03:13:30;;;;;;;14.27;4.90;;;14.70;99.90;;;;;;5093307;28;20064;-76
2023/07/18 03:15:56;;;;;;;17.80;4.93;;;14.70;99.90;;;;;;5109145;28;20043;-76
2023/07/18 03:18:24;;;;;;;15.38;5.05;;;14.80;99.90;;;;;;5102861;28;20093;-77
2023/07/18 03:20:50;;;;;;;15.80;4.82;;;14.60;99.90;;;;;;5113412;28;20443;-76
2023/07/18 03:23:16;;;;;;;12.65;5.60;;;14.60;99.90;;;;;;5090756;28;20039;-76
2023/07/18 03:25:41;;;;;;;20.60;5.63;;;14.70;99.90;;;;;;5108713;28;20080;-76
2023/07/18 03:28:08;;;;;;;20.38;5.85;;;14.90;99.90;;;;;;5097311;28;20080;-76
2023/07/18 03:30:34;;;;;;;22.70;5.80;;;14.60;99.90;;;;;;5110224;28;20036;-76
2023/07/18 03:32:59;;;;;;;14.45;5.35;;;14.70;99.90;;;;;;5111707;28;20610;-77
2023/07/18 03:35:25;;;;;;;15.48;5.63;;;14.70;99.90;;;;;;5093346;28;20048;-77
2023/07/18 03:37:51;;;;;;;18.50;5.47;;;14.70;99.90;;;;;;5091880;28;20040;-76
2023/07/18 03:40:18;;;;;;;14.77;5.68;;;14.60;99.90;;;;;;5107486;28;20405;-78
2023/07/18 03:42:44;;;;;;;15.30;5.33;;;15.20;99.90;;;;;;5102195;28;20514;-75
2023/07/18 03:45:13;;;;;;;15.48;5.15;;;14.70;99.90;;;;;;5106657;28;20035;-76
2023/07/18 03:47:41;;;;;;;;;;;14.60;99.90;;;;;;5111355;28;20048;-75
2023/07/18 03:50:09;;;;;;;17.88;5.70;;;14.60;99.90;;;;;;5109946;28;21006;-76
2023/07/18 03:52:38;;;;;;;15.75;4.93;;;14.70;99.90;;;;;;5092352;28;20080;-74
2023/07/18 03:55:04;;;;;;;18.05;5.15;;;14.70;99.90;;;;;;5099343;28;20096;-75
2023/07/18 03:57:34;;;;;;;22.55;5.40;;;14.70;99.90;;;;;;5074410;28;20038;-77
2023/07/18 04:00:03;;;;;;;16.83;5.15;;;14.70;99.90;;;;;;5085508;28;20127;-76
2023/07/18 04:02:29;;;;;;;18.15;5.60;;;14.70;99.90;;;;;;5115726;28;20069;-76
2023/07/18 04:04:54;;;;;;;25.83;5.80;;;14.60;99.90;;;;;;5115981;28;20538;-75
2023/07/18 04:07:21;;;;;;;14.73;5.45;;;14.80;99.90;;;;;;5113449;28;20055;-75
2023/07/18 04:09:46;;;;;;;18.38;4.97;;;14.70;99.90;;;;;;5115658;28;20075;-75
2023/07/18 04:12:13;;;;;;;19.05;5.93;;;14.70;99.90;;;;;;5115416;28;20457;-76
2023/07/18 04:14:42;;;;;;;19.17;5.43;;;14.80;99.90;;;;;;5094391;28;20445;-76
2023/07/18 04:17:07;;;;;;;21.52;5.15;;;14.80;99.90;;;;;;5110144;28;20086;-77
2023/07/18 04:19:33;;;;;;;17.88;6.10;;;14.90;99.90;;;;;;5112429;28;20059;-76
2023/07/18 04:21:59;;;;;;;18.63;6.10;;;14.80;99.90;;;;;;5112751;28;20374;-76
2023/07/18 04:24:24;;;;;;;14.80;5.10;;;14.80;99.90;;;;;;5115342;28;20038;-76
2023/07/18 04:26:50;;;;;;;18.40;5.53;;;15.00;99.90;;;;;;5093972;28;20078;-75
2023/07/18 04:29:17;;;;;;;13.45;5.35;;;14.80;99.90;;;;;;5078351;28;20483;-75
2023/07/18 04:31:42;;;;;;;14.80;5.10;;;14.80;99.90;;;;;;5106855;28;20177;-76
2023/07/18 04:34:08;;;;;;;14.73;4.93;;;14.90;99.90;;;;;;5093655;28;20040;-77
2023/07/18 04:36:33;;;;;;;17.23;6.03;;;14.90;99.90;;;;;;5105673;28;20050;-76
2023/07/18 04:38:59;;;;;;;15.70;5.28;;;14.90;99.90;;;;;;5109742;28;20036;-76
2023/07/18 04:41:25;;;;;;;13.30;4.70;;;15.00;99.90;;;;;;5090376;28;20043;-77
2023/07/18 04:43:50;;;;;;;18.95;5.97;;;15.00;99.90;;;;;;5085524;28;20401;-76
2023/07/18 04:46:16;;;;;;;17.13;6.05;;;15.10;99.90;;;;;;5112175;28;20493;-76
2023/07/18 04:48:42;;;;;;;21.55;5.32;;;15.10;99.90;;;;;;5105144;28;20039;-75
2023/07/18 04:51:07;;;;;;;18.35;6.63;;;15.20;99.90;;;;;;5111961;28;20046;-76
2023/07/18 04:53:33;;;;;;;19.85;5.03;;;15.20;99.90;;;;;;5093569;28;20080;-76
2023/07/18 04:56:00;;;;;;;21.23;5.55;;;15.20;99.90;;;;;;5094880;28;20040;-77
2023/07/18 04:58:29;;;;;;;21.83;5.57;;;15.30;99.90;;;;;;5089660;28;20118;-76
2023/07/18 05:00:56;;;;;;;20.23;5.50;;;15.30;99.90;;;;;;5106462;28;20032;-75
2023/07/18 05:03:22;;;;;;;17.98;5.18;;;15.40;99.90;;;;;;5093838;28;20084;-77
2023/07/18 05:05:48;;;;;;;19.67;5.85;;;15.70;99.90;;;;;;5092731;28;20406;-75
2023/07/18 05:08:13;;;;;;;16.05;4.85;;;15.50;99.90;;;;;;5088693;28;20048;-76
2023/07/18 05:10:40;;;;;;;17.13;5.05;;;15.50;99.90;;;;;;5090397;28;20054;-76
2023/07/18 05:13:07;;;;;;;15.25;5.25;;;15.50;99.90;;;;;;5080127;28;20041;-76
2023/07/18 05:15:32;;;;;;;16.10;5.00;;;15.60;99.90;;;;;;5090089;28;20092;-76
2023/07/18 05:17:58;;;;;;;20.25;5.15;;;15.60;99.90;;;;;;5090193;28;20036;-75
2023/07/18 05:20:24;;;;;;;17.77;5.00;;;15.60;99.90;;;;;;5087032;28;20066;-75
2023/07/18 05:22:49;;;;;;;18.23;5.07;;;15.60;99.90;;;;;;5089109;28;20040;-77
2023/07/18 05:25:16;;;;;;;16.95;4.63;;;15.60;99.90;;;;;;5093060;28;20044;-77
2023/07/18 05:27:43;;;;;;;15.45;4.40;;;15.70;99.90;;;;;;5091516;28;20059;-75
2023/07/18 05:30:19;;;;;;;23.35;5.05;;;15.80;99.90;;;;;;5089875;28;20047;-76
2023/07/18 05:32:45;;;;;;;18.35;5.95;;;15.80;99.90;;;;;;5086632;28;20386;-75
2023/07/18 05:35:14;;;;;;;20.17;5.43;;;15.90;99.90;;;;;;5086640;28;20123;-76
2023/07/18 05:37:41;;;;;;;15.93;5.72;;;16.00;99.90;;;;;;5087283;28;20043;-76
2023/07/18 05:40:11;;;;;;;18.70;5.60;;;16.10;99.90;;;;;;5092490;28;20040;-76
2023/07/18 05:42:42;;;;;;;20.85;5.55;;;16.10;99.90;;;;;;5075476;28;20094;-75
2023/07/18 05:45:08;;;;;;;14.90;4.80;;;16.10;99.90;;;;;;5090859;28;20501;-76
2023/07/18 05:47:35;;;;;;;17.10;4.90;;;16.10;99.90;;;;;;5082590;28;20124;-77
2023/07/18 05:50:04;;;;;;;17.73;5.22;;;16.00;99.90;;;;;;5082333;28;20041;-76
2023/07/18 05:52:29;;;;;;;20.88;5.88;;;16.10;99.90;;;;;;5089558;28;20097;-76
2023/07/18 05:54:55;;;;;;;18.33;6.03;;;16.10;99.90;;;;;;5091056;28;20040;-76
2023/07/18 05:57:21;;;;;;;16.15;5.45;;;16.10;99.90;;;;;;5088701;28;20039;-75
2023/07/18 05:59:46;;;;;;;25.00;5.68;;;16.10;99.90;;;;;;5091463;28;20452;-76
2023/07/18 06:02:13;;;;;;;17.25;5.60;;;16.10;99.90;;;;;;5091277;28;20113;-76
2023/07/18 06:04:39;;;;;;;19.52;5.55;;;16.20;99.90;;;;;;5084849;28;20029;-76
2023/07/18 06:07:06;;;;;;;14.20;5.95;;;16.20;99.90;;;;;;5097862;28;20097;-75
2023/07/18 06:09:32;;;;;;;17.00;5.43;;;16.30;99.90;;;;;;5094504;28;20552;-75
2023/07/18 06:11:57;;;;;;;18.73;5.43;;;16.30;99.90;;;;;;5109102;28;20134;-76
2023/07/18 06:14:23;;;;;;;24.25;6.05;;;16.30;99.90;;;;;;5108697;28;20413;-77
2023/07/18 06:16:48;;;;;;;14.88;5.72;;;16.30;99.90;;;;;;5101818;28;20040;-75
2023/07/18 06:19:15;;;;;;;18.90;5.82;;;16.30;99.90;;;;;;5112286;28;20474;-76
2023/07/18 06:21:41;;;;;;;18.48;6.30;;;16.40;99.90;;;;;;5094347;28;20490;-76
2023/07/18 06:24:07;;;;;;;22.50;5.53;;;16.50;99.90;;;;;;5107694;28;20071;-76
2023/07/18 06:26:32;;;;;;;17.13;5.55;;;16.70;99.90;;;;;;5109040;28;20042;-77
2023/07/18 06:28:58;;;;;;;19.67;5.45;;;16.90;99.90;;;;;;5108819;28;20036;-76
2023/07/18 06:31:24;;;;;;;18.50;6.25;;;16.90;99.90;;;;;;5105639;28;20040;-77
2023/07/18 06:33:51;;;;;;;22.20;5.95;;;17.00;99.90;;;;;;5114654;28;20040;-75
2023/07/18 06:36:16;;;;;;;15.68;5.78;;;17.10;99.90;;;;;;5114234;28;20039;-77
2023/07/18 06:38:43;;;;;;;22.15;5.68;;;17.30;99.90;;;;;;5113436;28;20569;-76
2023/07/18 06:41:08;;;;;;;17.17;5.63;;;17.50;99.90;;;;;;5107650;28;20394;-76
2023/07/18 06:43:34;;;;;;;20.85;5.75;;;17.60;99.90;;;;;;5114853;28;20077;-78
2023/07/18 06:46:00;;;;;;;19.00;5.40;;;17.80;99.90;;;;;;5111721;28;20408;-76
2023/07/18 06:48:26;;;;;;;26.92;6.35;;;18.00;99.90;;;;;;5111862;28;20093;-77
2023/07/18 06:50:57;;;;;;;15.35;5.20;;;18.20;99.90;;;;;;5103780;28;20043;-76
2023/07/18 06:53:23;;;;;;;23.10;5.93;;;18.40;99.90;;;;;;5092847;28;20040;-77
2023/07/18 06:55:49;;;;;;;17.52;5.78;;;18.50;99.90;;;;;;5115590;28;20047;-76
2023/07/18 06:58:19;;;;;;;17.70;5.38;;;18.70;99.90;;;;;;5103144;28;20062;-76
2023/07/18 07:00:46;;;;;;;18.77;6.10;;;18.80;99.90;;;;;;5104771;28;20044;-77
2023/07/18 07:03:14;;;;;;;17.92;5.63;;;19.00;99.90;;;;;;5099386;28;20047;-77
2023/07/18 07:05:43;;;;;;;18.17;5.28;;;18.90;99.90;;;;;;5115622;28;20465;-76
2023/07/18 07:08:12;;;;;;;22.27;5.57;;;18.80;99.90;;;;;;5112447;28;20055;-76
2023/07/18 07:10:42;;;;;;;18.00;5.97;;;19.00;99.90;;;;;;5094531;28;20043;-77
2023/07/18 07:13:08;;;;;;;19.73;5.72;;;19.00;99.90;;;;;;5092155;28;20052;-76
2023/07/18 07:15:34;;;;;;;23.90;6.38;;;19.10;99.90;;;;;;5098840;28;20027;-77
2023/07/18 07:18:00;;;;;;;21.75;6.95;;;18.90;99.90;;;;;;5112566;28;20612;-78
2023/07/18 07:20:28;;;;;;;19.63;5.65;;;19.30;99.90;;;;;;5111759;28;20044;-78
2023/07/18 07:22:54;;;;;;;18.30;5.20;;;19.50;99.90;;;;;;5094107;28;20075;-77
2023/07/18 07:25:20;;;;;;;15.65;5.43;;;19.50;99.90;;;;;;5102483;28;20040;-77
2023/07/18 07:27:46;;;;;;;22.15;5.60;;;19.60;99.90;;;;;;5081530;28;20046;-77
2023/07/18 07:30:16;;;;;;;14.45;4.90;;;19.60;99.90;;;;;;5114242;28;20054;-77
2023/07/18 07:32:47;;;;;;;22.52;6.05;;;19.70;99.90;;;;;;5103617;28;20035;-77
2023/07/18 07:35:16;;;;;;;19.00;5.60;;;19.80;99.90;;;;;;5115594;28;20401;-77
2023/07/18 07:37:42;;;;;;;21.40;5.60;;;19.90;99.90;;;;;;5103658;28;20271;-78
2023/07/18 07:40:11;;;;;;;16.15;5.00;;;20.10;99.90;;;;;;5120226;28;20093;-77
2023/07/18 07:42:48;;;;;;;15.93;5.30;;;20.20;99.90;;;;;;5114267;28;20032;-77
2023/07/18 07:45:15;;;;;;;15.23;4.97;;;20.30;99.90;;;;;;5118054;28;20044;-78
2023/07/18 07:47:43;;;;;;;21.73;5.35;;;20.20;99.90;;;;;;5116210;28;20050;-78
2023/07/18 07:50:10;;;;;;;21.48;6.38;;;20.10;99.90;;;;;;5110178;28;20405;-77
2023/07/18 07:52:36;;;;;;;19.35;5.82;;;20.10;99.90;;;;;;5102951;28;20044;-78
2023/07/18 07:55:02;;;;;;;19.40;4.65;;;20.10;99.90;;;;;;5115099;28;20044;-78
2023/07/18 07:57:28;;;;;;;13.65;4.68;;;20.20;99.90;;;;;;5116929;28;20036;-78
2023/07/18 07:59:55;;;;;;;14.55;4.78;;;20.20;99.90;;;;;;5096726;28;20092;-77
2023/07/18 08:02:20;;;;;;;17.23;4.60;;;20.30;99.90;;;;;;5098032;28;20047;-78
2023/07/18 08:04:47;;;;;;;13.85;4.78;;;20.40;99.90;;;;;;5109752;28;20040;-77
2023/07/18 08:07:14;;;;;;;10.70;4.33;;;20.40;99.90;;;;;;5118260;28;20098;-78
2023/07/18 08:09:40;;;;;;;14.35;4.97;;;20.50;99.90;;;;;;5105011;28;20067;-77
2023/07/18 08:12:09;;;;;;;15.70;4.65;;;20.60;99.90;;;;;;5098900;28;20494;-77
2023/07/18 08:14:37;;;;;;;19.60;5.32;;;20.80;99.90;;;;;;5118675;28;20040;-77
2023/07/18 08:17:03;;;;;;;;;;;20.90;99.90;;;;;;5116454;28;20043;-78
2023/07/18 08:19:29;;;;;;;12.77;3.50;;;20.90;99.90;;;;;;5114777;28;19997;-78
2023/07/18 08:21:56;;;;;;;10.95;3.50;;;21.00;99.90;;;;;;5079332;28;20119;-77
2023/07/18 08:24:21;;;;;;;11.20;3.50;;;21.20;99.90;;;;;;5108907;28;20047;-77
2023/07/18 08:26:47;;;;;;;14.32;3.30;;;21.30;99.90;;;;;;5116930;28;20070;-77
2023/07/18 08:29:12;;;;;;;8.35;3.05;;;21.30;99.90;;;;;;5086076;28;20041;-78
2023/07/18 08:31:38;;;;;;;13.07;3.15;;;21.20;99.90;;;;;;5099386;28;20047;-78
2023/07/18 08:34:09;;;;;;;10.63;3.50;;;21.20;99.90;;;;;;5102532;28;20524;-78
2023/07/18 08:36:35;;;;;;;14.23;3.47;;;21.30;99.90;;;;;;5110573;28;20036;-77
2023/07/18 08:39:05;;;;;;;18.60;3.55;;;21.50;99.90;;;;;;5102886;28;20054;-77
2023/07/18 08:41:31;;;;;;;9.82;2.92;;;21.70;99.90;;;;;;5115691;28;20083;-79
2023/07/18 08:43:59;;;;;;;19.33;3.50;;;21.90;99.90;;;;;;5101289;28;20044;-77
2023/07/18 08:46:26;;;;;;;9.55;2.60;;;22.00;99.90;;;;;;5119537;28;20040;-78
2023/07/18 08:48:54;;;;;;;12.75;3.35;;;22.10;99.90;;;;;;5098676;28;20080;-77
2023/07/18 08:51:21;;;;;;;11.40;2.50;;;22.30;99.90;;;;;;5096973;28;20092;-78
2023/07/18 08:53:47;;;;;;;10.02;2.30;;;22.30;99.90;;;;;;5109552;28;20406;-78
2023/07/18 08:56:13;;;;;;;6.72;2.80;;;22.40;99.90;;;;;;5093330;28;20040;-77
2023/07/18 08:58:38;;;;;;;14.57;2.70;;;22.60;99.90;;;;;;5097574;28;20397;-78
2023/07/18 09:01:05;;;;;;;8.80;3.10;;;22.70;99.90;;;;;;5096474;28;20390;-77
2023/07/18 09:03:31;;;;;;;11.02;2.58;;;22.80;99.90;;;;;;5112354;28;20039;-78
2023/07/18 09:06:00;;;;;;;7.75;2.30;;;22.90;99.90;;;;;;5109267;28;20044;-78
2023/07/18 09:08:26;;;;;;;9.02;2.60;;;22.80;99.90;;;;;;5090247;28;20095;-78
2023/07/18 09:11:02;;;;;;;7.70;2.85;;;22.60;99.90;;;;;;5094213;28;20086;-77
2023/07/18 09:13:31;;;;;;;12.52;2.63;;;22.60;99.90;;;;;;5088439;28;20044;-77
2023/07/18 09:15:56;;;;;;;6.88;2.35;;;22.40;99.80;;;;;;5089182;28;20437;-77
2023/07/18 09:18:23;;;;;;;6.07;2.20;;;22.30;99.90;;;;;;5094755;28;20032;-77
2023/07/18 09:20:48;;;;;;;7.45;2.28;;;22.40;99.90;;;;;;5090149;28;20032;-77
2023/07/18 09:23:14;;;;;;;9.80;2.40;;;22.40;99.90;;;;;;5091904;28;20051;-76
2023/07/18 09:25:40;;;;;;;9.48;3.17;;;22.40;99.50;;;;;;5072867;28;20040;-76
2023/07/18 09:28:09;;;;;;;8.32;2.50;;;22.40;99.90;;;;;;5088130;28;20131;-77
2023/07/18 09:30:35;;;;;;;10.85;2.80;;;22.50;99.80;;;;;;5091711;28;20044;-76
2023/07/18 09:33:07;;;;;;;10.27;2.58;;;22.60;98.80;;;;;;5085255;28;20050;-78
2023/07/18 09:35:38;;;;;;;10.02;2.20;;;22.60;99.30;;;;;;5095138;28;20042;-78
2023/07/18 09:38:07;;;;;;;8.73;3.42;;;22.60;99.90;;;;;;5090268;28;20040;-78
2023/07/18 09:40:34;;;;;;;10.57;2.70;;;22.60;99.80;;;;;;5086891;28;20036;-77
2023/07/18 09:43:00;;;;;;;;;;;22.50;99.60;;;;;;5080755;28;20413;-78
2023/07/18 09:45:27;;;;;;;10.07;2.40;;;22.50;99.30;;;;;;5096064;28;19920;-78
2023/07/18 09:47:52;;;;;;;8.63;2.10;;;22.80;99.80;;;;;;5093381;28;20095;-78
2023/07/18 09:50:18;;;;;;;7.38;2.63;;;22.90;99.30;;;;;;5102470;28;20074;-78
2023/07/18 09:52:51;;;;;;;10.23;2.47;;;23.10;99.60;;;;;;5107442;28;20036;-78
2023/07/18 09:55:29;;;;;;;10.25;2.75;;;23.40;99.70;;;;;;5100700;28;20047;-78
2023/07/18 09:57:55;;;;;;;8.07;2.03;;;23.70;99.40;;;;;;5084395;28;20040;-77
2023/07/18 10:00:23;;;;;;;9.10;2.45;;;23.60;98.60;;;;;;5094086;28;20050;-78
2023/07/18 10:02:52;;;;;;;16.65;3.22;;;23.50;98.30;;;;;;5089816;28;20040;-78
2023/07/18 10:05:19;;;;;;;44.13;5.22;;;23.20;98.20;;;;;;5096968;28;20044;-78
2023/07/18 10:07:46;;;;;;;15.98;3.53;;;23.00;98.40;;;;;;5093387;28;20497;-77
2023/07/18 10:10:12;;;;;;;8.83;2.37;;;22.80;98.60;;;;;;5092898;28;20074;-76
2023/07/18 10:13:00;;;;;;;11.45;2.35;;;22.60;98.80;;;;;;5094570;28;20036;-77
2023/07/18 10:15:27;;;;;;;10.60;2.17;;;22.40;98.70;;;;;;5074799;28;20497;-78
2023/07/18 10:17:53;;;;;;;15.13;2.75;;;22.30;99.20;;;;;;5079527;28;20055;-77
2023/07/18 10:20:33;;;;;;;8.50;2.63;;;22.30;99.20;;;;;;5080546;28;20051;-77
2023/07/18 10:22:59;;;;;;;113.18;8.68;;;22.20;99.50;;;;;;5079162;28;20541;-78
2023/07/18 10:25:28;;;;;;;41.67;5.27;;;22.20;99.90;;;;;;5086504;28;20036;-79
2023/07/18 10:27:57;;;;;;;9.73;2.60;;;22.20;99.70;;;;;;5088829;28;20479;-77
2023/07/18 10:30:23;;;;;;;15.48;3.25;;;22.10;99.50;;;;;;5089043;28;20044;-78
2023/07/18 10:32:54;;;;;;;16.40;2.83;;;22.00;99.60;;;;;;5093869;28;20036;-78
2023/07/18 10:35:22;;;;;;;7.95;2.80;;;22.00;99.70;;;;;;5094060;28;20067;-77
2023/07/18 10:37:53;;;;;;;8.00;2.70;;;21.90;99.90;;;;;;5092006;28;20043;-77
2023/07/18 10:40:43;;;;;;;12.98;3.03;;;21.80;99.90;;;;;;5091057;28;20043;-77
2023/07/18 10:43:10;;;;;;;8.13;2.65;;;21.70;99.90;;;;;;5080901;28;20048;-77
2023/07/18 10:45:40;;;;;;;11.10;2.70;;;21.60;99.90;;;;;;5078508;28;20485;-78
2023/07/18 10:48:17;;;;;;;8.52;2.40;;;21.60;99.90;;;;;;5093608;28;20048;-78
2023/07/18 10:50:45;;;;;;;10.85;2.50;;;21.50;99.90;;;;;;5086715;28;20037;-77
2023/07/18 10:53:12;;;;;;;11.18;3.00;;;21.40;99.90;;;;;;5076046;28;20101;-78
2023/07/18 10:55:38;;;;;;;9.63;2.85;;;21.40;99.90;;;;;;5083574;28;20048;-77
2023/07/18 10:58:10;;;;;;;9.57;2.97;;;21.40;99.90;;;;;;5073805;28;20040;-78
2023/07/18 11:00:39;;;;;;;9.73;2.50;;;21.50;99.90;;;;;;5090322;28;20055;-78
2023/07/18 11:03:04;;;;;;;12.52;2.80;;;21.70;99.90;;;;;;5084503;28;20535;-77
2023/07/18 11:05:30;;;;;;;10.13;2.40;;;21.80;99.90;;;;;;5074240;28;20041;-78
2023/07/18 11:07:56;;;;;;;14.32;3.20;;;21.90;99.90;;;;;;5089924;28;20048;-78
2023/07/18 11:10:24;;;;;;;8.82;2.53;;;22.30;99.90;;;;;;5097704;28;20126;-77
2023/07/18 11:12:52;;;;;;;8.90;2.92;;;22.50;99.90;;;;;;5106346;28;20103;-79
2023/07/18 11:15:21;;;;;;;;;;;22.80;99.90;;;;;;5089755;28;20039;-78
2023/07/18 11:17:47;;;;;;;14.60;2.88;;;23.20;99.60;;;;;;5104385;28;20388;-78
2023/07/18 11:20:13;;;;;;;6.45;2.17;;;23.40;99.10;;;;;;5089030;28;20048;-77
2023/07/18 11:22:39;;;;;;;8.13;2.67;;;23.40;98.20;;;;;;5086537;28;20051;-80
2023/07/18 11:25:06;;;;;;;8.35;2.30;;;23.30;97.80;;;;;;5108834;28;20788;-77
2023/07/18 11:27:31;;;;;;;6.78;2.25;;;23.10;98.20;;;;;;5112940;28;20126;-77
2023/07/18 11:30:08;;;;;;;6.05;2.05;;;23.00;98.70;;;;;;5106436;28;20454;-76
2023/07/18 11:32:45;;;;;;;5.88;2.00;;;23.00;98.80;;;;;;5090365;28;20117;-77
2023/07/18 11:35:18;;;;;;;4.40;1.98;;;23.20;98.10;;;;;;5111522;28;20040;-78
2023/07/18 11:37:46;;;;;;;7.88;2.00;;;23.70;97.50;;;;;;5118294;28;20039;-78
2023/07/18 11:40:23;;;;;;;9.43;1.88;;;24.20;97.70;;;;;;5101428;28;20089;-78
2023/07/18 11:42:57;;;;;;;6.13;1.95;;;24.70;96.60;;;;;;5123056;28;20071;-77
2023/07/18 11:45:28;;;;;;;7.93;1.67;;;25.20;95.80;;;;;;5120716;28;20125;-79
2023/07/18 11:47:58;;;;;;;7.30;1.98;;;25.60;95.60;;;;;;5104900;28;20044;-78
2023/07/18 11:50:28;;;;;;;9.80;2.40;;;25.80;95.00;;;;;;5101496;28;20078;-78
2023/07/18 11:52:56;;;;;;;9.35;2.10;;;25.50;93.90;;;;;;5116873;28;20100;-79
2023/07/18 11:55:22;;;;;;;9.77;2.13;;;25.30;93.70;;;;;;5099372;28;20035;-80
2023/07/18 11:57:48;;;;;;;10.18;2.45;;;25.10;94.70;;;;;;5083472;28;20032;-80
2023/07/18 12:00:16;;;;;;;9.77;2.10;;;25.20;94.50;;;;;;5095458;28;20178;-79
2023/07/18 12:02:43;;;;;;;8.95;2.20;;;25.30;93.90;;;;;;5119356;28;20027;-79
2023/07/18 12:05:10;;;;;;;9.15;3.10;;;25.60;94.30;;;;;;5117410;28;20063;-78
2023/07/18 12:07:35;;;;;;;7.63;2.05;;;25.60;92.10;;;;;;5119120;28;20044;-78
2023/07/18 12:10:06;;;;;;;9.40;2.17;;;25.60;92.70;;;;;;5121495;28;20078;-79
2023/07/18 12:12:35;;;;;;;8.52;2.47;;;25.50;92.10;;;;;;5120910;28;20036;-78
2023/07/18 12:15:01;;;;;;;6.45;2.65;;;25.40;93.10;;;;;;5097635;28;20040;-80
2023/07/18 12:17:27;;;;;;;4.70;2.17;;;25.00;93.10;;;;;;5103743;28;20055;-81
2023/07/18 12:19:52;;;;;;;8.77;2.53;;;24.50;93.90;;;;;;5101384;28;20044;-79
2023/07/18 12:22:18;;;;;;;7.47;2.45;;;24.20;94.40;;;;;;5107819;28;20051;-78
2023/07/18 12:24:44;;;;;;;10.60;2.53;;;24.00;94.90;;;;;;5116621;28;20119;-80
2023/07/18 12:27:14;;;;;;;6.68;2.25;;;23.80;95.10;;;;;;5082900;28;20047;-80
2023/07/18 12:29:42;;;;;;;9.15;2.38;;;23.60;95.80;;;;;;5087623;28;20089;-79
2023/07/18 12:32:11;;;;;;;4.57;2.33;;;23.30;96.30;;;;;;5119752;28;20043;-79
2023/07/18 12:34:40;;;;;;;6.45;2.60;;;23.10;96.40;;;;;;5093710;28;20051;-78
2023/07/18 12:37:07;;;;;;;7.05;2.88;;;22.80;96.60;;;;;;5109855;28;20499;-77
2023/07/18 12:39:33;;;;;;;6.30;2.50;;;22.50;97.20;;;;;;5096893;28;20044;-77
2023/07/18 12:41:59;;;;;;;6.95;2.70;;;22.20;97.60;;;;;;5099030;28;20304;-78